map of KIKG home
KIKG - Airport
Location
City:  Kingsville, Texas, United States
Name:Kleberg County Airport
ICAO:KIKG
FAA LID:IKG

Details
Type:Airport (Airfield)
Use:Public/Civil
Latitude:2733'03"N (27.550861)
Longitude:9801'51"W (-98.030916)
Datum:WGS 1984
Elevation:130 ft (40 m)
Variation:4.08E (WMM2015 magnetic declination)
-0.11 annual change
Runways:1
Longest:6000 × 75 ft (1829 × 23 m), paved

Time
Time Zone:UTC-6 (DST-5)
Local Time:

Weather
METAR:KIKG 230035Z AUTO 07006KT 7SM SCT085 30/23 A2981 RMK AO2 T03000233

Related Locations
Nearby:
Farthest:RRG: 11150 mi / 17945 km
Plaine Corail [Sir Gatan Duval Airport (Plaine Corail Airport)], Rodrigues Island, MU

Find:

   beyond  
but within

Other Information
Maps:
NOTAMs:
Links:
Sources:

  
flag of United States
flag of Texas
  

Sectional Chart

Flight Planning
at skyvector.com

Satellite Image

Google Maps Satellite view

 

Copyright © 2004-2017 Karl L. Swartz. All rights reserved.
The Great Circle Mapper name and logo are trademarks of the Great Circle Mapper.
All other trademarks mentioned herein belong to their respective owners.
Please see credits for attibutions and further copyright information.

  Follow gcmap on Facebook Follow gcmap on Twitter Follow gcmap on Google+ GCmap on LinkedIn

hCard Microformat

Geo Microformat